Time;durP1;ratioP1;P1;durP2;ratioP2;P2;SDS_P1;SDS_P2;PMS_P1;PMS_P2;Temp;Humidity;BMP_temperature;BMP_pressure;BME280_temperature;BME280_humidity;BME280_pressure;Samples;Min_cycle;Max_cycle;Signal;HPM_P1;HPM_P2
2021/01/25 00:01:52;;;;;;;5.68;2.20;;;281.80;1971.20;;;;;;5095226;28;20039;-63
2021/01/25 00:04:18;;;;;;;6.07;1.90;;;281.80;1971.20;;;;;;5095007;28;20068;-63
2021/01/25 00:06:43;;;;;;;3.28;1.67;;;281.90;1971.20;;;;;;5095081;28;20054;-65
2021/01/25 00:09:09;;;;;;;2.63;1.48;;;281.80;1971.20;;;;;;5095556;28;20349;-64
2021/01/25 00:11:35;;;;;;;4.05;1.48;;;281.80;1996.80;;;;;;5095570;28;20078;-64
2021/01/25 00:14:00;;;;;;;2.70;1.38;;;281.80;1996.80;;;;;;5094437;28;20073;-63
2021/01/25 00:16:26;;;;;;;3.33;1.60;;;281.70;1996.80;;;;;;5085013;28;20020;-64
2021/01/25 00:18:52;;;;;;;4.95;1.88;;;281.70;1996.80;;;;;;5086575;28;20027;-64
2021/01/25 00:21:18;;;;;;;5.57;2.33;;;281.70;1996.80;;;;;;5086725;28;20033;-64
2021/01/25 00:23:47;;;;;;;2.40;1.40;;;281.60;1996.80;;;;;;5097789;28;20020;-64
2021/01/25 00:26:13;;;;;;;3.33;1.20;;;281.60;1996.80;;;;;;5097845;28;20035;-64
2021/01/25 00:28:39;;;;;;;7.65;2.78;;;281.60;2022.40;;;;;;5098094;28;20028;-64
2021/01/25 00:31:04;;;;;;;4.25;2.28;;;281.60;2022.40;;;;;;5097328;28;20027;-64
2021/01/25 00:33:31;;;;;;;4.20;1.63;;;281.60;2022.40;;;;;;5097734;28;20089;-64
2021/01/25 00:35:57;;;;;;;5.30;1.85;;;281.60;2022.40;;;;;;5097977;28;20028;-64
2021/01/25 00:38:23;;;;;;;4.00;1.77;;;281.60;2022.40;;;;;;5097701;28;20024;-64
2021/01/25 00:40:51;;;;;;;2.63;1.30;;;281.60;2022.40;;;;;;5097359;28;20165;-63
2021/01/25 00:43:17;;;;;;;3.60;1.67;;;281.60;2022.40;;;;;;5097296;28;20339;-64
2021/01/25 00:45:43;;;;;;;3.42;1.40;;;281.60;2048.00;;;;;;5097018;28;20032;-63
2021/01/25 00:48:09;;;;;;;3.75;1.63;;;281.60;2048.00;;;;;;5097554;28;20093;-63
2021/01/25 00:50:35;;;;;;;4.03;1.38;;;281.60;2048.00;;;;;;5097451;28;20421;-64
2021/01/25 00:53:00;;;;;;;1.83;1.10;;;256.90;1996.80;;;;;;5097217;28;20416;-64
2021/01/25 00:55:26;;;;;;;1.95;1.05;;;256.90;1996.80;;;;;;5097412;28;20051;-63
2021/01/25 00:57:52;;;;;;;2.25;1.10;;;281.60;2022.40;;;;;;5097024;28;20020;-64
2021/01/25 01:00:18;;;;;;;5.03;1.02;;;281.60;2022.40;;;;;;5086259;28;20032;-64
2021/01/25 01:02:44;;;;;;;1.70;0.95;;;281.60;2022.40;;;;;;5085965;28;20340;-64
2021/01/25 01:05:10;;;;;;;2.72;1.23;;;281.60;2022.40;;;;;;5084765;28;20056;-64
2021/01/25 01:07:36;;;;;;;5.78;1.73;;;281.60;2022.40;;;;;;5086425;28;20020;-64
2021/01/25 01:10:04;;;;;;;2.25;1.08;;;281.60;2022.40;;;;;;5087161;28;20046;-64
2021/01/25 01:12:30;;;;;;;1.48;0.98;;;256.90;1996.80;;;;;;5086966;28;20032;-65
2021/01/25 01:14:55;;;;;;;1.95;0.88;;;256.90;1996.80;;;;;;5085887;28;20321;-64
2021/01/25 01:17:21;;;;;;;2.63;1.30;;;256.90;1996.80;;;;;;5086558;28;20097;-64
2021/01/25 01:19:48;;;;;;;3.08;1.10;;;256.90;1996.80;;;;;;5084506;28;20024;-64
2021/01/25 01:22:13;;;;;;;2.40;1.13;;;256.80;2022.40;;;;;;5086093;28;20485;-65
2021/01/25 01:24:39;;;;;;;3.83;1.02;;;256.80;2022.40;;;;;;5086149;28;20100;-64
2021/01/25 01:27:05;;;;;;;2.67;1.00;;;256.80;2022.40;;;;;;5084115;28;20025;-64
2021/01/25 01:29:31;;;;;;;2.78;1.10;;;256.80;2022.40;;;;;;5085877;28;20040;-64
2021/01/25 01:31:57;;;;;;;3.22;0.90;;;256.80;2022.40;;;;;;5083073;28;20020;-64
2021/01/25 01:34:23;;;;;;;1.60;0.90;;;256.80;2022.40;;;;;;5084477;28;20028;-65
2021/01/25 01:36:49;;;;;;;5.22;1.08;;;256.80;2022.40;;;;;;5077093;28;20028;-63
2021/01/25 01:39:15;;;;;;;3.65;1.17;;;256.80;2022.40;;;;;;5076844;28;20074;-64
2021/01/25 01:41:40;;;;;;;2.58;1.20;;;256.80;2022.40;;;;;;5076758;28;20021;-64
2021/01/25 01:44:08;;;;;;;1.58;0.90;;;256.80;2022.40;;;;;;5080084;28;20036;-63
2021/01/25 01:46:35;;;;;;;3.47;1.00;;;256.80;2022.40;;;;;;5080875;28;20021;-65
2021/01/25 01:49:01;;;;;;;3.70;1.00;;;256.80;2022.40;;;;;;5080542;28;20111;-65
2021/01/25 01:51:27;;;;;;;3.55;1.08;;;256.70;2048.00;;;;;;5080394;28;20133;-64
2021/01/25 01:53:54;;;;;;;2.13;1.05;;;256.80;2022.40;;;;;;5079922;28;20389;-64
2021/01/25 01:56:20;;;;;;;3.60;1.00;;;256.80;2022.40;;;;;;5080120;28;20128;-64
2021/01/25 01:58:46;;;;;;;1.42;0.75;;;256.70;2022.40;;;;;;5080370;28;20029;-64
2021/01/25 02:01:12;;;;;;;3.83;0.80;;;256.80;2048.00;;;;;;5080297;28;20031;-64
2021/01/25 02:03:38;;;;;;;2.67;1.17;;;256.80;2048.00;;;;;;5079989;28;20020;-64
2021/01/25 02:06:06;;;;;;;2.17;1.10;;;256.80;2073.60;;;;;;5080338;28;20040;-64
2021/01/25 02:08:36;;;;;;;2.47;0.90;;;256.70;2099.20;;;;;;5080475;28;20115;-64
2021/01/25 02:11:02;;;;;;;4.85;1.25;;;256.70;2124.80;;;;;;5079826;28;20079;-64
2021/01/25 02:13:30;;;;;;;2.88;1.00;;;256.70;2124.80;;;;;;5080056;28;20020;-64
2021/01/25 02:15:59;;;;;;;1.48;0.80;;;256.60;2124.80;;;;;;5080036;28;20058;-64
2021/01/25 02:18:27;;;;;;;1.58;0.80;;;256.60;2124.80;;;;;;5080025;28;20016;-64
2021/01/25 02:20:53;;;;;;;1.25;0.70;;;256.60;2124.80;;;;;;5079394;28;20319;-64
2021/01/25 02:23:28;;;;;;;1.23;1.00;;;256.60;2124.80;;;;;;5079930;28;20024;-64
2021/01/25 02:26:20;;;;;;;3.45;1.00;;;256.60;2124.80;;;;;;5079579;28;20024;-65
2021/01/25 02:28:47;;;;;;;4.28;0.93;;;256.60;2124.80;;;;;;5079888;28;20024;-64
2021/01/25 02:31:13;;;;;;;3.95;1.23;;;256.60;2124.80;;;;;;5079452;28;20337;-64
2021/01/25 02:33:53;;;;;;;1.60;0.98;;;256.50;2124.80;;;;;;5079770;28;20388;-64
2021/01/25 02:36:19;;;;;;;0.63;0.40;;;256.30;1996.80;;;;;;5079738;28;20027;-64
2021/01/25 02:38:49;;;;;;;2.00;0.50;;;205.20;1996.80;;;;;;5079414;28;20052;-64
2021/01/25 02:41:16;;;;;;;14.90;1.05;;;179.20;2150.40;;;;;;5079890;28;20048;-64
2021/01/25 02:43:45;;;;;;;2.35;0.70;;;128.70;2252.80;;;;;;5079860;28;20027;-63
2021/01/25 02:46:11;;;;;;;8.73;1.40;;;77.10;2227.20;;;;;;5078713;28;20341;-65
2021/01/25 02:48:37;;;;;;;1.67;1.00;;;51.60;2227.20;;;;;;5079191;28;20021;-68
2021/01/25 02:51:04;;;;;;;2.03;1.00;;;51.20;2227.20;;;;;;5079364;28;20028;-71
2021/01/25 02:53:30;;;;;;;2.53;1.30;;;26.10;2201.60;;;;;;5079204;28;20031;-70
2021/01/25 02:55:57;;;;;;;3.65;1.50;;;25.80;2201.60;;;;;;5079585;28;20111;-70
2021/01/25 02:58:24;;;;;;;2.50;1.40;;;25.60;2201.60;;;;;;5079558;28;20024;-70
2021/01/25 03:00:50;;;;;;;4.63;1.63;;;25.70;2201.60;;;;;;5078892;28;20321;-69
2021/01/25 03:03:23;;;;;;;3.55;1.65;;;25.60;2201.60;;;;;;5078623;28;20417;-68
2021/01/25 03:05:50;;;;;;;4.47;2.10;;;25.60;2201.60;;;;;;5078860;28;20203;-68
2021/01/25 03:08:16;;;;;;;3.08;1.65;;;25.60;2201.60;;;;;;5079084;28;20024;-69
2021/01/25 03:10:42;;;;;;;3.30;1.80;;;25.60;2201.60;;;;;;5078626;28;20373;-69
2021/01/25 03:13:08;;;;;;;3.85;1.85;;;0.80;2201.60;;;;;;5078737;28;20150;-69
2021/01/25 03:15:35;;;;;;;3.65;2.05;;;0.70;2201.60;;;;;;5078926;28;20043;-69
2021/01/25 03:18:03;;;;;;;3.83;2.03;;;0.80;2201.60;;;;;;5078599;28;20486;-69
2021/01/25 03:20:29;;;;;;;2.83;1.63;;;0.70;2201.60;;;;;;5078598;28;20025;-70
2021/01/25 03:22:54;;;;;;;4.45;2.30;;;0.60;2201.60;;;;;;5078833;28;20066;-70
2021/01/25 03:25:20;;;;;;;4.13;2.20;;;0.60;2201.60;;;;;;5078172;28;20025;-69
2021/01/25 03:27:46;;;;;;;4.70;2.25;;;0.70;2201.60;;;;;;5078591;28;20024;-69
2021/01/25 03:30:13;;;;;;;5.95;2.10;;;0.70;2201.60;;;;;;5078486;28;20131;-70
2021/01/25 03:32:40;;;;;;;4.28;2.35;;;0.60;2201.60;;;;;;5078819;28;20024;-70
2021/01/25 03:35:09;;;;;;;4.10;2.30;;;0.70;2201.60;;;;;;5078264;28;20031;-71
2021/01/25 03:37:36;;;;;;;4.82;2.67;;;0.70;2201.60;;;;;;5078783;28;20020;-71
2021/01/25 03:40:02;;;;;;;3.85;2.17;;;0.80;2201.60;;;;;;5077834;28;20460;-72
2021/01/25 03:42:28;;;;;;;3.60;2.40;;;0.80;2201.60;;;;;;5077872;28;20406;-72
2021/01/25 03:44:54;;;;;;;3.90;2.17;;;0.80;2201.60;;;;;;5078068;28;20028;-71
2021/01/25 03:47:20;;;;;;;4.43;2.30;;;0.80;2201.60;;;;;;5078021;28;20073;-72
2021/01/25 03:49:45;;;;;;;3.50;1.80;;;0.70;2201.60;;;;;;5077578;28;20147;-71
2021/01/25 03:52:11;;;;;;;3.13;1.80;;;0.70;2201.60;;;;;;5078468;28;20142;-72
2021/01/25 03:54:37;;;;;;;4.05;2.00;;;0.70;2201.60;;;;;;5077841;28;20052;-73
2021/01/25 03:57:03;;;;;;;3.33;1.88;;;0.80;2201.60;;;;;;5078110;28;20109;-72
2021/01/25 03:59:31;;;;;;;5.97;2.17;;;0.80;2201.60;;;;;;5078368;28;20048;-71
2021/01/25 04:01:57;;;;;;;3.97;2.00;;;0.70;2201.60;;;;;;5077727;28;20028;-72
2021/01/25 04:04:23;;;;;;;4.25;2.30;;;0.70;2201.60;;;;;;5093253;28;20032;-71
2021/01/25 04:06:49;;;;;;;3.88;2.10;;;0.80;2201.60;;;;;;5097235;28;20566;-72
2021/01/25 04:09:15;;;;;;;3.83;2.20;;;0.70;2201.60;;;;;;5097808;28;20035;-71
2021/01/25 04:11:44;;;;;;;3.95;2.20;;;0.80;2201.60;;;;;;5098107;28;20085;-71
2021/01/25 04:14:10;;;;;;;4.88;2.33;;;0.80;2201.60;;;;;;5098318;28;20024;-72
2021/01/25 04:16:36;;;;;;;4.72;2.45;;;0.80;2201.60;;;;;;5097209;28;20060;-71
2021/01/25 04:19:03;;;;;;;4.65;2.80;;;0.80;2201.60;;;;;;5098204;28;20020;-71
2021/01/25 04:21:29;;;;;;;5.25;2.40;;;0.80;2201.60;;;;;;5086155;28;20032;-71
2021/01/25 04:23:55;;;;;;;5.18;2.83;;;0.90;2201.60;;;;;;5077378;28;20048;-71
2021/01/25 04:26:21;;;;;;;6.30;3.72;;;0.90;2201.60;;;;;;5080476;28;20051;-71
2021/01/25 04:28:47;;;;;;;5.35;3.55;;;0.80;2201.60;;;;;;5093100;28;20024;-71
2021/01/25 04:31:12;;;;;;;4.57;2.65;;;0.80;2201.60;;;;;;5097159;28;20028;-71
2021/01/25 04:33:39;;;;;;;5.28;3.50;;;0.90;2201.60;;;;;;5097474;28;20062;-70
2021/01/25 04:36:05;;;;;;;5.18;2.90;;;25.60;2201.60;;;;;;5097734;28;20352;-70
2021/01/25 04:38:31;;;;;;;4.13;2.90;;;0.90;2201.60;;;;;;5097694;28;20020;-70
2021/01/25 04:40:57;;;;;;;4.32;2.78;;;0.80;2201.60;;;;;;5097655;28;20085;-70
2021/01/25 04:43:24;;;;;;;5.72;2.95;;;0.80;2201.60;;;;;;5093297;28;20019;-70
2021/01/25 04:45:50;;;;;;;5.18;3.13;;;0.70;2201.60;;;;;;5077609;28;20037;-70
2021/01/25 04:48:16;;;;;;;4.95;3.08;;;0.70;2201.60;;;;;;5087368;28;20349;-70
2021/01/25 04:50:41;;;;;;;4.75;3.05;;;0.70;2201.60;;;;;;5082651;28;20040;-70
2021/01/25 04:53:07;;;;;;;5.18;3.47;;;0.80;2201.60;;;;;;5076975;28;20023;-70
2021/01/25 04:55:35;;;;;;;6.25;3.40;;;0.70;2201.60;;;;;;5077284;28;20029;-69
2021/01/25 04:58:02;;;;;;;5.90;3.80;;;0.80;2201.60;;;;;;5093572;28;20020;-69
2021/01/25 05:00:28;;;;;;;6.60;3.90;;;0.80;2201.60;;;;;;5082068;28;20107;-69
2021/01/25 05:02:54;;;;;;;6.63;3.85;;;0.80;2201.60;;;;;;5079757;28;20040;-70
2021/01/25 05:05:20;;;;;;;7.28;4.45;;;0.80;2201.60;;;;;;5085969;28;20059;-70
2021/01/25 05:07:46;;;;;;;6.13;3.53;;;0.80;2201.60;;;;;;5086586;28;20019;-70
2021/01/25 05:10:12;;;;;;;6.18;3.58;;;0.80;2201.60;;;;;;5082017;28;20075;-69
2021/01/25 05:12:45;;;;;;;8.25;4.07;;;0.70;2201.60;;;;;;5086106;28;20024;-70
2021/01/25 05:15:26;;;;;;;6.03;3.75;;;0.50;2201.60;;;;;;5087264;28;20426;-71
2021/01/25 05:17:52;;;;;;;5.60;3.60;;;0.50;2201.60;;;;;;5084972;28;20333;-71
2021/01/25 05:20:23;;;;;;;11.88;4.15;;;0.40;2201.60;;;;;;5091099;28;20054;-71
2021/01/25 05:22:49;;;;;;;9.38;4.80;;;0.50;2201.60;;;;;;5080840;28;20016;-71
2021/01/25 05:25:29;;;;;;;8.57;4.93;;;0.50;2201.60;;;;;;5081050;28;20063;-71
2021/01/25 05:27:57;;;;;;;7.82;4.40;;;0.50;2201.60;;;;;;5080780;28;20115;-71
2021/01/25 05:30:23;;;;;;;7.47;4.10;;;0.50;2201.60;;;;;;5080894;28;20052;-71
2021/01/25 05:32:54;;;;;;;7.38;4.25;;;0.50;2201.60;;;;;;5080869;28;20057;-72
2021/01/25 05:35:28;;;;;;;9.32;5.18;;;0.50;2201.60;;;;;;5087554;28;20037;-73
2021/01/25 05:37:55;;;;;;;11.07;4.75;;;0.50;2201.60;;;;;;5101136;28;20027;-72
2021/01/25 05:40:23;;;;;;;10.82;5.50;;;0.40;2201.60;;;;;;5091683;28;20074;-72
2021/01/25 05:42:49;;;;;;;9.63;5.07;;;0.50;2201.60;;;;;;5082891;28;20074;-71
2021/01/25 05:45:15;;;;;;;11.50;6.35;;;0.50;2201.60;;;;;;5082268;28;20032;-73
2021/01/25 05:47:58;;;;;;;11.80;6.10;;;0.50;2201.60;;;;;;5097155;28;20551;-74
2021/01/25 05:50:35;;;;;;;12.18;6.35;;;0.50;2201.60;;;;;;5100441;28;20434;-72
2021/01/25 05:53:03;;;;;;;13.13;6.15;;;0.50;2201.60;;;;;;5095883;28;20025;-72
2021/01/25 05:55:29;;;;;;;12.77;6.72;;;0.60;2201.60;;;;;;5079869;28;20020;-72
2021/01/25 05:57:55;;;;;;;14.18;6.90;;;0.60;2201.60;;;;;;5078451;28;20020;-72
2021/01/25 06:00:22;;;;;;;11.30;6.80;;;0.60;2201.60;;;;;;5079093;28;20417;-72
2021/01/25 06:02:50;;;;;;;14.52;7.75;;;0.70;2201.60;;;;;;5080100;28;20112;-73
2021/01/25 06:05:38;;;;;;;14.43;7.43;;;0.70;2201.60;;;;;;5079891;28;20143;-72
2021/01/25 06:08:20;;;;;;;13.38;6.47;;;0.80;2201.60;;;;;;5080013;28;20307;-72
2021/01/25 06:11:02;;;;;;;10.55;6.03;;;0.70;2201.60;;;;;;5080399;28;20036;-72
2021/01/25 06:13:35;;;;;;;11.35;6.68;;;0.70;2201.60;;;;;;5080196;28;20020;-72
2021/01/25 06:16:01;;;;;;;10.73;6.28;;;0.70;2201.60;;;;;;5079584;28;20024;-71
2021/01/25 06:18:28;;;;;;;13.35;7.03;;;0.70;2201.60;;;;;;5080099;28;20025;-72
2021/01/25 06:20:55;;;;;;;13.65;6.97;;;0.70;2201.60;;;;;;5080278;28;20024;-71
2021/01/25 06:23:23;;;;;;;13.02;7.35;;;0.70;2201.60;;;;;;5079935;28;20103;-71
2021/01/25 06:25:49;;;;;;;14.85;8.07;;;0.80;2201.60;;;;;;5079921;28;20024;-71
2021/01/25 06:28:15;;;;;;;13.13;7.38;;;0.80;2201.60;;;;;;5079026;28;20031;-71
2021/01/25 06:30:47;;;;;;;15.82;8.75;;;0.80;2201.60;;;;;;5079764;28;20425;-71
2021/01/25 06:33:18;;;;;;;14.25;8.10;;;0.80;2201.60;;;;;;5079774;28;20107;-71
2021/01/25 06:35:50;;;;;;;15.10;8.23;;;0.80;2201.60;;;;;;5079770;28;20020;-70
2021/01/25 06:38:17;;;;;;;17.25;8.23;;;0.80;2201.60;;;;;;5079972;28;20025;-71
2021/01/25 06:40:45;;;;;;;14.93;8.55;;;0.80;2201.60;;;;;;5079930;28;20077;-71
2021/01/25 06:43:13;;;;;;;14.32;8.05;;;0.90;2201.60;;;;;;5078625;28;20418;-70
2021/01/25 06:45:41;;;;;;;19.30;10.20;;;0.80;2201.60;;;;;;5079242;28;20063;-71
2021/01/25 06:48:07;;;;;;;21.60;9.27;;;0.80;2201.60;;;;;;5079531;28;20058;-71
2021/01/25 06:50:36;;;;;;;19.27;8.18;;;0.80;2201.60;;;;;;5079349;28;20040;-70
2021/01/25 06:53:04;;;;;;;22.75;9.00;;;0.80;2201.60;;;;;;5079124;28;20406;-70
2021/01/25 06:55:33;;;;;;;24.42;10.55;;;0.90;2201.60;;;;;;5079374;28;20039;-70
2021/01/25 06:58:05;;;;;;;29.25;10.38;;;25.70;2201.60;;;;;;5079105;28;20025;-70
2021/01/25 07:00:33;;;;;;;20.13;9.75;;;25.80;2201.60;;;;;;5078704;28;20416;-69
2021/01/25 07:03:04;;;;;;;18.25;8.90;;;25.90;2201.60;;;;;;5078930;28;20031;-69
2021/01/25 07:05:35;;;;;;;20.33;10.18;;;25.90;2201.60;;;;;;5078434;28;20056;-70
2021/01/25 07:08:25;;;;;;;19.23;10.25;;;26.00;2201.60;;;;;;5079419;28;20456;-69
2021/01/25 07:11:04;;;;;;;17.33;8.90;;;26.20;2201.60;;;;;;5079060;28;20032;-70
2021/01/25 07:13:32;;;;;;;;;;;26.30;2201.60;;;;;;5079153;28;20024;-69
2021/01/25 07:15:58;;;;;;;;;;;26.40;2201.60;;;;;;5079078;28;19911;-69
2021/01/25 07:18:26;;;;;;;16.38;6.65;;;51.20;2227.20;;;;;;5078598;28;19939;-68
2021/01/25 07:20:55;;;;;;;13.57;6.37;;;51.30;2227.20;;;;;;5078564;28;20413;-69
2021/01/25 07:23:23;;;;;;;14.77;6.32;;;51.20;2227.20;;;;;;5078502;28;20056;-68
2021/01/25 07:26:00;;;;;;;12.02;5.70;;;51.20;2227.20;;;;;;5078477;28;20090;-68
2021/01/25 07:28:29;;;;;;;11.27;5.40;;;51.20;2227.20;;;;;;5079051;28;20074;-68
2021/01/25 07:30:55;;;;;;;13.32;5.95;;;51.20;2227.20;;;;;;5078583;28;20028;-68
2021/01/25 07:33:22;;;;;;;11.75;5.30;;;51.20;2227.20;;;;;;5078085;28;20028;-67
2021/01/25 07:35:48;;;;;;;11.57;5.45;;;51.30;2227.20;;;;;;5078249;28;20031;-67
2021/01/25 07:38:14;;;;;;;15.25;6.40;;;51.20;2227.20;;;;;;5078263;28;20025;-67
2021/01/25 07:40:43;;;;;;;11.75;6.38;;;51.30;2227.20;;;;;;5076928;28;20127;-67
2021/01/25 07:43:08;;;;;;;12.38;5.85;;;51.50;2227.20;;;;;;5078443;28;20487;-67
2021/01/25 07:45:34;;;;;;;14.23;6.70;;;51.50;2227.20;;;;;;5077479;28;20024;-67
2021/01/25 07:48:00;;;;;;;16.83;7.53;;;51.60;2227.20;;;;;;5077632;28;20035;-67
2021/01/25 07:50:26;;;;;;;17.55;7.55;;;51.80;2227.20;;;;;;5078156;28;20380;-67
2021/01/25 07:53:03;;;;;;;11.65;6.05;;;51.80;2227.20;;;;;;5078207;28;20028;-67
2021/01/25 07:55:29;;;;;;;6.25;3.65;;;51.80;2227.20;;;;;;5078462;28;20024;-66
2021/01/25 07:58:09;;;;;;;4.80;3.20;;;51.80;2227.20;;;;;;5078401;28;20024;-66
2021/01/25 08:00:37;;;;;;;4.68;3.55;;;51.60;2227.20;;;;;;5077800;28;20318;-66
2021/01/25 08:03:12;;;;;;;5.15;3.40;;;51.50;2227.20;;;;;;5077513;28;20432;-66
2021/01/25 08:05:39;;;;;;;6.30;4.18;;;51.40;2227.20;;;;;;5078199;28;20140;-66
2021/01/25 08:08:09;;;;;;;5.05;3.30;;;51.40;2227.20;;;;;;5077130;28;20020;-66
2021/01/25 08:10:35;;;;;;;7.05;5.13;;;51.40;2227.20;;;;;;5078053;28;20024;-66
2021/01/25 08:13:18;;;;;;;7.18;3.70;;;51.50;2227.20;;;;;;5077837;28;20099;-66
2021/01/25 08:16:16;;;;;;;6.47;4.00;;;51.50;2227.20;;;;;;5077576;28;20333;-65
2021/01/25 08:19:16;;;;;;;7.85;4.80;;;51.50;2227.20;;;;;;5035477;28;20037;-66
2021/01/25 08:21:59;;;;;;;11.32;6.07;;;51.50;2227.20;;;;;;5035436;28;20037;-65
2021/01/25 08:24:25;;;;;;;8.18;4.90;;;51.60;2227.20;;;;;;5035357;28;20103;-66
2021/01/25 08:26:54;;;;;;;9.77;5.80;;;51.50;2227.20;;;;;;5034762;28;20512;-66
2021/01/25 08:29:27;;;;;;;8.77;5.55;;;51.50;2227.20;;;;;;5033889;28;20048;-66
2021/01/25 08:31:53;;;;;;;8.40;5.35;;;51.60;2227.20;;;;;;5034197;28;20042;-66
2021/01/25 08:34:30;;;;;;;7.63;4.53;;;51.60;2227.20;;;;;;5033808;28;20025;-66
2021/01/25 08:37:07;;;;;;;6.93;4.53;;;51.40;2227.20;;;;;;5034722;28;20103;-66
2021/01/25 08:39:44;;;;;;;6.38;4.15;;;51.30;2227.20;;;;;;5034210;28;20029;-65
2021/01/25 08:42:22;;;;;;;15.18;7.32;;;51.40;2227.20;;;;;;5034439;28;20037;-65
2021/01/25 08:44:52;;;;;;;11.18;6.25;;;51.40;2227.20;;;;;;5033990;28;20451;-65
2021/01/25 08:47:26;;;;;;;13.18;6.70;;;51.60;2227.20;;;;;;5035173;28;20030;-66
2021/01/25 08:49:53;;;;;;;10.73;7.45;;;51.60;2227.20;;;;;;5034541;28;20037;-65
2021/01/25 08:52:45;;;;;;;9.13;6.32;;;51.70;2227.20;;;;;;5033082;28;20554;-65
2021/01/25 08:55:26;;;;;;;8.20;5.15;;;51.80;2227.20;;;;;;5054442;28;20040;-65
2021/01/25 08:57:53;;;;;;;8.93;6.55;;;51.70;2227.20;;;;;;5076859;28;20055;-65
2021/01/25 09:00:34;;;;;;;8.85;5.13;;;51.80;2227.20;;;;;;5077198;28;20025;-65
2021/01/25 09:03:06;;;;;;;10.77;6.55;;;51.80;2227.20;;;;;;5077276;28;20035;-65
2021/01/25 09:05:32;;;;;;;11.45;6.55;;;52.00;2227.20;;;;;;5077080;28;20048;-65
2021/01/25 09:07:59;;;;;;;8.75;5.30;;;52.10;2227.20;;;;;;5076875;28;20031;-66
2021/01/25 09:10:25;;;;;;;11.07;6.25;;;52.10;2227.20;;;;;;5076963;28;20337;-66
2021/01/25 09:12:51;;;;;;;13.07;7.45;;;76.80;2227.20;;;;;;5076801;28;20487;-66
2021/01/25 09:15:18;;;;;;;11.02;6.78;;;77.00;2227.20;;;;;;5077079;28;20028;-65
2021/01/25 09:17:44;;;;;;;9.82;6.80;;;77.20;2227.20;;;;;;5077045;28;20020;-65
2021/01/25 09:20:11;;;;;;;8.15;5.03;;;77.30;2227.20;;;;;;5077017;28;20507;-65
2021/01/25 09:22:37;;;;;;;12.43;6.15;;;77.30;2227.20;;;;;;5077322;28;20047;-65
2021/01/25 09:25:05;;;;;;;9.35;5.90;;;77.60;2227.20;;;;;;5076664;28;20031;-66
2021/01/25 09:27:31;;;;;;;8.68;5.28;;;102.40;2227.20;;;;;;5077193;28;20021;-65
2021/01/25 09:29:56;;;;;;;10.38;6.00;;;102.50;2227.20;;;;;;5076820;28;20067;-65
2021/01/25 09:32:22;;;;;;;12.77;7.35;;;102.70;2227.20;;;;;;5076335;28;20052;-66
2021/01/25 09:34:48;;;;;;;10.95;7.32;;;103.20;2227.20;;;;;;5077174;28;20314;-65
2021/01/25 09:37:14;;;;;;;10.85;6.05;;;128.00;2252.80;;;;;;5076855;28;20461;-66
2021/01/25 09:39:40;;;;;;;9.15;6.18;;;128.00;2252.80;;;;;;5077104;28;20127;-66
2021/01/25 09:42:07;;;;;;;11.05;6.35;;;128.10;2252.80;;;;;;5076141;28;20466;-66
2021/01/25 09:44:37;;;;;;;10.32;6.20;;;128.10;2252.80;;;;;;5076727;28;20028;-66
2021/01/25 09:47:04;;;;;;;9.93;6.32;;;128.40;2252.80;;;;;;5076994;28;20025;-65
2021/01/25 09:49:30;;;;;;;12.15;7.35;;;128.70;2252.80;;;;;;5084370;28;20020;-66
2021/01/25 09:51:56;;;;;;;14.90;9.20;;;153.60;2252.80;;;;;;5087074;28;20020;-66
2021/01/25 09:54:21;;;;;;;12.32;8.75;;;153.70;2252.80;;;;;;5086457;28;20083;-66
2021/01/25 09:56:49;;;;;;;32.85;25.00;;;153.80;2252.80;;;;;;5085375;28;20066;-64
2021/01/25 09:59:15;;;;;;;21.58;17.45;;;153.80;2252.80;;;;;;5086540;28;20111;-64
2021/01/25 10:01:42;;;;;;;9.52;6.13;;;128.90;2252.80;;;;;;5084450;28;20684;-64
2021/01/25 10:04:09;;;;;;;13.40;8.32;;;128.60;2252.80;;;;;;5084506;28;20107;-64
2021/01/25 10:06:35;;;;;;;10.80;6.88;;;128.40;2252.80;;;;;;5080724;28;20346;-63
2021/01/25 10:09:01;;;;;;;13.57;8.32;;;128.30;2252.80;;;;;;5079527;28;20029;-64
2021/01/25 10:11:28;;;;;;;43.10;25.70;;;128.30;2252.80;;;;;;5080325;28;20432;-63
2021/01/25 10:13:54;;;;;;;17.95;10.52;;;128.20;2252.80;;;;;;5080089;28;20166;-64
2021/01/25 10:16:20;;;;;;;7.57;5.47;;;128.10;2252.80;;;;;;5079548;28;20473;-64
2021/01/25 10:18:46;;;;;;;7.18;5.05;;;128.30;2252.80;;;;;;5079764;28;20029;-64
2021/01/25 10:21:13;;;;;;;5.35;3.65;;;128.60;2252.80;;;;;;5080070;28;20116;-64
2021/01/25 10:23:38;;;;;;;6.60;4.28;;;153.70;2252.80;;;;;;5092326;28;20499;-64
2021/01/25 10:26:04;;;;;;;5.10;3.58;;;128.80;2252.80;;;;;;5098926;28;20043;-63
2021/01/25 10:28:30;;;;;;;4.78;3.08;;;128.50;2252.80;;;;;;5099345;28;20077;-64
2021/01/25 10:30:56;;;;;;;5.70;3.40;;;103.30;2227.20;;;;;;5097360;28;20089;-63
2021/01/25 10:33:22;;;;;;;4.57;3.25;;;103.10;2227.20;;;;;;5098727;28;20027;-63
2021/01/25 10:35:48;;;;;;;4.35;3.15;;;102.80;2227.20;;;;;;5099096;28;20406;-63
2021/01/25 10:38:14;;;;;;;5.32;3.70;;;102.70;2227.20;;;;;;5096754;28;20046;-64
2021/01/25 10:40:40;;;;;;;7.05;3.35;;;102.70;2227.20;;;;;;5099397;28;20143;-62
2021/01/25 10:43:07;;;;;;;5.65;2.78;;;102.90;2227.20;;;;;;5099556;28;20333;-63
2021/01/25 10:45:33;;;;;;;3.90;2.80;;;102.90;2227.20;;;;;;5097745;28;20054;-63
2021/01/25 10:47:59;;;;;;;5.72;3.35;;;103.00;2227.20;;;;;;5099303;28;20020;-65
2021/01/25 10:50:24;;;;;;;6.45;3.70;;;103.00;2227.20;;;;;;5099230;28;20083;-63
2021/01/25 10:52:50;;;;;;;5.88;4.10;;;103.20;2227.20;;;;;;5099062;28;20032;-64
2021/01/25 10:55:16;;;;;;;4.30;2.80;;;128.10;2252.80;;;;;;5099307;28;20028;-64
2021/01/25 10:57:42;;;;;;;6.15;3.30;;;128.10;2252.80;;;;;;5099583;28;20024;-64
2021/01/25 11:00:20;;;;;;;13.20;4.53;;;128.30;2252.80;;;;;;5088640;28;20491;-65
2021/01/25 11:02:46;;;;;;;5.15;3.30;;;153.60;2252.80;;;;;;5089071;28;20031;-65
2021/01/25 11:05:15;;;;;;;4.40;2.30;;;154.00;2252.80;;;;;;5097277;28;20127;-66
2021/01/25 11:07:41;;;;;;;5.72;2.53;;;153.90;2252.80;;;;;;5098708;28;20353;-65
2021/01/25 11:10:14;;;;;;;4.80;2.80;;;153.80;2252.80;;;;;;5098990;28;20032;-65
2021/01/25 11:12:40;;;;;;;3.97;2.20;;;153.90;2252.80;;;;;;5098942;28;20079;-65
2021/01/25 11:15:07;;;;;;;4.65;2.50;;;154.30;2252.80;;;;;;5099311;28;20016;-65
2021/01/25 11:17:32;;;;;;;4.75;2.83;;;154.50;2252.80;;;;;;5099283;28;20051;-65
2021/01/25 11:19:59;;;;;;;12.20;3.28;;;179.30;2252.80;;;;;;5098363;28;20058;-64
2021/01/25 11:22:24;;;;;;;6.18;3.38;;;179.70;2252.80;;;;;;5098377;28;20043;-64
2021/01/25 11:24:50;;;;;;;42.15;18.40;;;179.80;2022.40;;;;;;5097214;28;20333;-63
2021/01/25 11:27:18;;;;;;;15.05;7.78;;;179.60;2252.80;;;;;;5097838;28;20028;-64
2021/01/25 11:29:44;;;;;;;88.88;30.60;;;179.50;2252.80;;;;;;5098702;28;20020;-63
2021/01/25 11:32:10;;;;;;;5.57;3.30;;;179.50;2252.80;;;;;;5097171;28;20024;-66
2021/01/25 11:34:37;;;;;;;6.80;3.80;;;179.60;2252.80;;;;;;5096310;28;20051;-65
2021/01/25 11:37:03;;;;;;;11.10;5.40;;;204.90;2252.80;;;;;;5097392;28;20440;-65
2021/01/25 11:39:30;;;;;;;9.48;5.75;;;205.20;2252.80;;;;;;5097991;28;20085;-66
2021/01/25 11:41:57;;;;;;;4.05;2.80;;;205.20;2252.80;;;;;;5096938;28;20056;-63
2021/01/25 11:44:23;;;;;;;10.00;3.35;;;205.40;2252.80;;;;;;5098226;28;20032;-63
2021/01/25 11:46:49;;;;;;;16.42;3.92;;;230.40;2252.80;;;;;;5098387;28;20111;-64
2021/01/25 11:49:15;;;;;;;5.68;3.30;;;230.50;2176.00;;;;;;5098110;28;20115;-64
2021/01/25 11:51:43;;;;;;;6.10;2.70;;;205.60;1996.80;;;;;;5097815;28;20474;-64
2021/01/25 11:54:09;;;;;;;9.68;2.97;;;205.20;1996.80;;;;;;5096191;28;20020;-65
2021/01/25 11:56:35;;;;;;;13.88;6.70;;;205.10;2252.80;;;;;;5092017;28;20473;-64
2021/01/25 11:59:01;;;;;;;6.05;3.13;;;205.60;2252.80;;;;;;5097557;28;20109;-63
2021/01/25 12:01:27;;;;;;;15.43;3.75;;;230.60;1971.20;;;;;;5091229;28;20052;-63
2021/01/25 12:03:53;;;;;;;7.07;3.40;;;230.70;2252.80;;;;;;5079837;28;20028;-64
2021/01/25 12:06:19;;;;;;;8.90;4.75;;;230.70;2099.20;;;;;;5084522;28;20129;-63
2021/01/25 12:08:45;;;;;;;9.90;6.57;;;230.80;2201.60;;;;;;5085959;28;20020;-64
2021/01/25 12:11:11;;;;;;;10.27;4.45;;;231.30;2124.80;;;;;;5084751;28;20102;-63
2021/01/25 12:13:38;;;;;;;4.22;2.70;;;256.70;2252.80;;;;;;5086105;28;20020;-64
2021/01/25 12:16:06;;;;;;;5.65;3.28;;;256.50;1843.20;;;;;;5084385;28;20140;-64
2021/01/25 12:18:32;;;;;;;8.25;3.22;;;281.60;1843.20;;;;;;5083983;28;20024;-64
2021/01/25 12:20:58;;;;;;;16.98;6.47;;;282.30;1843.20;;;;;;5095636;28;20115;-65
2021/01/25 12:23:24;;;;;;;4.45;2.30;;;282.30;1894.40;;;;;;5095719;28;20098;-64
2021/01/25 12:25:50;;;;;;;5.10;3.33;;;282.20;1766.40;;;;;;5096654;28;20110;-63
2021/01/25 12:28:16;;;;;;;15.05;2.90;;;282.20;1843.20;;;;;;5097559;28;20024;-63